Time;durP1;ratioP1;P1;durP2;ratioP2;P2;SDS_P1;SDS_P2;PMS_P1;PMS_P2;Temp;Humidity;BMP_temperature;BMP_pressure;BME280_temperature;BME280_humidity;BME280_pressure;Samples;Min_cycle;Max_cycle;Signal;HPM_P1;HPM_P2
2023/06/16 00:01:23;;;;;;;;;;;21.20;43.30;;;;;;5074171;28;19969;-33
2023/06/16 00:03:49;;;;;;;;;;;21.20;43.30;;;;;;5074277;28;19912;-34
2023/06/16 00:06:16;;;;;;;;;;;21.20;43.40;;;;;;5074078;28;20399;-35
2023/06/16 00:08:44;;;;;;;;;;;21.20;43.50;;;;;;5074433;28;19913;-35
2023/06/16 00:11:10;;;;;;;;;;;21.20;43.50;;;;;;5074066;28;20223;-43
2023/06/16 00:13:36;;;;;;;;;;;21.20;43.60;;;;;;5074051;28;19916;-36
2023/06/16 00:16:01;;;;;;;;;;;21.10;43.60;;;;;;5073884;28;19913;-34
2023/06/16 00:18:28;;;;;;;;;;;21.10;43.60;;;;;;5074016;28;19956;-35
2023/06/16 00:20:54;;;;;;;;;;;21.10;43.70;;;;;;5074145;28;19916;-34
2023/06/16 00:23:21;;;;;;;;;;;21.00;43.70;;;;;;5074082;28;19974;-33
2023/06/16 00:25:47;;;;;;;;;;;21.00;43.80;;;;;;5073720;28;19917;-34
2023/06/16 00:28:12;;;;;;;;;;;21.00;43.80;;;;;;5073679;28;19975;-35
2023/06/16 00:30:37;;;;;;;;;;;21.00;43.90;;;;;;5073721;28;19942;-35
2023/06/16 00:33:03;;;;;;;;;;;20.90;43.90;;;;;;5073575;28;19935;-34
2023/06/16 00:35:28;;;;;;;;;;;20.90;43.90;;;;;;5073714;28;19962;-34
2023/06/16 00:37:54;;;;;;;;;;;20.90;44.00;;;;;;5073467;28;19978;-34
2023/06/16 00:40:20;;;;;;;;;;;20.80;44.00;;;;;;5073808;28;19913;-34
2023/06/16 00:42:45;;;;;;;;;;;20.80;44.10;;;;;;5073542;28;19920;-34
2023/06/16 00:45:11;;;;;;;;;;;20.70;44.10;;;;;;5073494;28;19919;-34
2023/06/16 00:47:36;;;;;;;;;;;20.60;44.30;;;;;;5073272;28;19917;-34
2023/06/16 00:50:02;;;;;;;;;;;20.60;44.40;;;;;;5073364;28;19913;-36
2023/06/16 00:52:30;;;;;;;;;;;20.60;44.40;;;;;;5073326;28;20121;-34
2023/06/16 00:54:56;;;;;;;;;;;20.50;44.40;;;;;;5073195;28;20379;-36
2023/06/16 00:57:22;;;;;;;;;;;20.50;44.50;;;;;;5073367;28;19918;-35
2023/06/16 00:59:47;;;;;;;;;;;20.40;44.50;;;;;;5073375;28;19938;-35
2023/06/16 01:02:13;;;;;;;;;;;20.40;44.50;;;;;;5073008;28;20437;-35
2023/06/16 01:04:39;;;;;;;;;;;20.40;44.60;;;;;;5073177;28;20414;-33
2023/06/16 01:07:30;;;;;;;;;;;20.40;44.70;;;;;;5071979;28;19930;-34
2023/06/16 01:09:56;;;;;;;;;;;20.40;44.70;;;;;;5041842;28;20337;-35
2023/06/16 01:12:40;;;;;;;;;;;20.40;44.80;;;;;;5073083;28;19966;-34
2023/06/16 01:15:11;;;;;;;;;;;20.30;45.00;;;;;;5073095;28;19916;-34
2023/06/16 01:17:44;;;;;;;;;;;20.30;45.10;;;;;;5073259;28;19916;-34
2023/06/16 01:20:09;;;;;;;;;;;20.30;45.20;;;;;;5072847;28;19931;-34
2023/06/16 01:22:38;;;;;;;;;;;20.20;45.20;;;;;;5072627;28;19913;-33
2023/06/16 01:25:04;;;;;;;;;;;20.20;45.40;;;;;;5072477;28;19916;-32
2023/06/16 01:27:32;;;;;;;;;;;20.10;45.60;;;;;;5072633;28;19924;-35
2023/06/16 01:29:58;;;;;;;;;;;20.10;45.80;;;;;;5073046;28;19919;-35
2023/06/16 01:32:25;;;;;;;;;;;20.10;45.90;;;;;;5072466;28;19912;-34
2023/06/16 01:34:51;;;;;;;;;;;20.00;46.00;;;;;;5072530;28;19919;-34
2023/06/16 01:37:18;;;;;;;;;;;19.90;46.00;;;;;;5072693;28;19916;-35
2023/06/16 01:39:44;;;;;;;;;;;19.90;46.10;;;;;;5072344;28;19924;-33
2023/06/16 01:42:11;;;;;;;;;;;19.90;46.10;;;;;;5072622;28;19912;-36
2023/06/16 01:44:37;;;;;;;;;;;19.90;46.10;;;;;;5071036;28;19944;-36
2023/06/16 01:47:02;;;;;;;;;;;19.90;46.10;;;;;;5072639;28;19916;-34
2023/06/16 01:49:28;;;;;;;;;;;19.90;46.10;;;;;;5072425;28;20497;-35
2023/06/16 01:51:53;;;;;;;;;;;19.90;46.20;;;;;;5072468;28;20292;-32
2023/06/16 01:54:19;;;;;;;;;;;19.90;46.20;;;;;;5072156;28;19912;-35
2023/06/16 01:56:45;;;;;;;;;;;19.80;46.20;;;;;;5072141;28;20272;-33
2023/06/16 01:59:10;;;;;;;;;;;19.90;46.30;;;;;;5072465;28;20429;-33
2023/06/16 02:01:56;;;;;;;;;;;19.80;46.30;;;;;;5071998;28;19919;-34
2023/06/16 02:04:23;;;;;;;;;;;19.80;46.50;;;;;;5071440;28;19919;-35
2023/06/16 02:06:59;;;;;;;;;;;19.70;46.70;;;;;;5071965;28;20003;-34
2023/06/16 02:09:25;;;;;;;;;;;19.60;46.90;;;;;;5070937;28;19954;-34
2023/06/16 02:11:52;;;;;;;;;;;19.50;47.10;;;;;;5072451;28;20395;-33
2023/06/16 02:14:18;;;;;;;;;;;19.50;47.80;;;;;;5072135;28;19920;-35
2023/06/16 02:16:44;;;;;;;;;;;19.50;47.20;;;;;;5070458;28;19917;-34
2023/06/16 02:19:11;;;;;;;;;;;19.40;47.30;;;;;;5072373;28;19961;-33
2023/06/16 02:21:37;;;;;;;;;;;19.40;47.50;;;;;;5071791;28;19919;-34
2023/06/16 02:24:03;;;;;;;;;;;19.30;47.80;;;;;;5071789;28;19912;-34
2023/06/16 02:26:29;;;;;;;;;;;19.30;47.90;;;;;;5071996;28;19939;-33
2023/06/16 02:28:55;;;;;;;;;;;19.20;48.10;;;;;;5071924;28;19999;-38
2023/06/16 02:31:20;;;;;;;;;;;19.20;48.30;;;;;;5070644;28;19912;-34
2023/06/16 02:33:48;;;;;;;;;;;19.10;48.50;;;;;;5071711;28;20396;-38
2023/06/16 02:36:13;;;;;;;;;;;19.10;48.60;;;;;;5071808;28;20379;-34
2023/06/16 02:38:39;;;;;;;;;;;19.10;48.80;;;;;;5071806;28;19912;-34
2023/06/16 02:41:04;;;;;;;;;;;19.00;48.90;;;;;;5071767;28;20374;-33
2023/06/16 02:43:31;;;;;;;;;;;18.90;49.30;;;;;;5071753;28;19963;-34
2023/06/16 02:45:57;;;;;;;;;;;18.90;49.80;;;;;;5071987;28;19917;-35
2023/06/16 02:48:23;;;;;;;;;;;18.90;49.60;;;;;;5071780;28;20400;-34
2023/06/16 02:50:48;;;;;;;;;;;18.80;49.60;;;;;;5071631;28;19960;-36
2023/06/16 02:53:13;;;;;;;;;;;18.80;49.60;;;;;;5071552;28;19920;-34
2023/06/16 02:55:39;;;;;;;;;;;18.80;49.70;;;;;;5071685;28;20018;-35
2023/06/16 02:58:05;;;;;;;;;;;18.70;49.90;;;;;;5071739;28;20415;-35
2023/06/16 03:00:30;;;;;;;;;;;18.70;50.70;;;;;;5072018;28;19916;-32
2023/06/16 03:02:56;;;;;;;;;;;18.70;50.20;;;;;;5071428;28;19912;-35
2023/06/16 03:05:23;;;;;;;;;;;18.70;50.30;;;;;;5071799;28;20352;-34
2023/06/16 03:07:49;;;;;;;;;;;18.60;50.40;;;;;;5071415;28;19939;-35
2023/06/16 03:10:14;;;;;;;;;;;18.60;50.40;;;;;;5071720;28;19912;-34
2023/06/16 03:12:40;;;;;;;;;;;18.60;50.40;;;;;;5071820;28;19912;-37
2023/06/16 03:15:05;;;;;;;;;;;18.60;50.60;;;;;;5071355;28;20242;-36
2023/06/16 03:17:33;;;;;;;;;;;18.60;50.60;;;;;;5071517;28;20007;-34
2023/06/16 03:19:58;;;;;;;;;;;18.60;50.70;;;;;;5071544;28;20000;-34
2023/06/16 03:22:24;;;;;;;;;;;18.60;50.70;;;;;;5071420;28;19954;-34
2023/06/16 03:24:50;;;;;;;;;;;18.50;50.60;;;;;;5071363;28;20295;-35
2023/06/16 03:27:16;;;;;;;;;;;18.60;50.70;;;;;;5071266;28;19916;-35
2023/06/16 03:29:42;;;;;;;;;;;18.60;50.80;;;;;;5073105;28;19974;-33
2023/06/16 03:32:08;;;;;;;;;;;18.50;50.70;;;;;;5074998;28;20295;-37
2023/06/16 03:34:34;;;;;;;;;;;18.50;50.60;;;;;;5074837;28;19999;-34
2023/06/16 03:36:59;;;;;;;;;;;18.60;50.60;;;;;;5074826;28;19919;-35
2023/06/16 03:39:25;;;;;;;;;;;18.60;50.60;;;;;;5074737;28;19956;-34
2023/06/16 03:41:51;;;;;;;;;;;18.60;50.50;;;;;;5074875;28;19920;-36
2023/06/16 03:44:17;;;;;;;;;;;18.60;50.60;;;;;;5074697;28;20379;-35
2023/06/16 03:46:42;;;;;;;;;;;18.60;50.60;;;;;;5074544;28;19927;-34
2023/06/16 03:49:08;;;;;;;;;;;18.70;50.60;;;;;;5074525;28;19920;-34
2023/06/16 03:51:33;;;;;;;;;;;18.70;50.60;;;;;;5074700;28;19919;-41
2023/06/16 03:53:59;;;;;;;;;;;18.70;50.50;;;;;;5074538;28;19917;-36
2023/06/16 03:56:24;;;;;;;;;;;18.70;50.50;;;;;;5074412;28;19931;-33
2023/06/16 03:58:50;;;;;;;;;;;18.70;50.40;;;;;;5074328;28;20376;-34
2023/06/16 04:01:16;;;;;;;;;;;18.80;50.50;;;;;;5074351;28;19912;-37
2023/06/16 04:03:42;;;;;;;;;;;18.80;50.50;;;;;;5074164;28;19991;-35
2023/06/16 04:06:07;;;;;;;;;;;18.80;50.50;;;;;;5074084;28;20031;-35
2023/06/16 04:08:33;;;;;;;;;;;18.80;50.50;;;;;;5074216;28;19923;-34
2023/06/16 04:10:58;;;;;;;;;;;18.80;50.50;;;;;;5074121;28;19919;-35
2023/06/16 04:13:24;;;;;;;;;;;18.80;50.50;;;;;;5074435;28;20011;-33
2023/06/16 04:15:50;;;;;;;;;;;18.80;50.50;;;;;;5074152;28;20363;-34
2023/06/16 04:18:15;;;;;;;;;;;18.80;50.50;;;;;;5074082;28;19935;-33
2023/06/16 04:20:41;;;;;;;;;;;18.80;50.50;;;;;;5073882;28;20284;-35
2023/06/16 04:23:09;;;;;;;;;;;18.80;50.70;;;;;;5073920;28;19944;-39
2023/06/16 04:25:35;;;;;;;;;;;18.80;50.70;;;;;;5073841;28;19920;-35
2023/06/16 04:28:01;;;;;;;;;;;18.80;50.70;;;;;;5074172;28;19917;-36
2023/06/16 04:30:30;;;;;;;;;;;18.80;50.80;;;;;;5073703;28;20284;-39
2023/06/16 04:32:58;;;;;;;;;;;18.80;50.80;;;;;;5073698;28;20291;-34
2023/06/16 04:35:27;;;;;;;;;;;18.80;50.80;;;;;;5073696;28;19912;-34
2023/06/16 04:37:53;;;;;;;;;;;18.80;50.80;;;;;;5073679;28;20327;-34
2023/06/16 04:40:19;;;;;;;;;;;18.80;50.90;;;;;;5072924;28;19913;-35
2023/06/16 04:42:44;;;;;;;;;;;18.80;51.00;;;;;;5073058;28;19919;-33
2023/06/16 04:45:10;;;;;;;;;;;18.80;51.00;;;;;;5073694;28;19912;-36
2023/06/16 04:47:35;;;;;;;;;;;18.80;51.00;;;;;;5073337;28;19962;-35
2023/06/16 04:50:02;;;;;;;;;;;18.80;51.10;;;;;;5073379;28;19913;-35
2023/06/16 04:52:27;;;;;;;;;;;18.80;51.10;;;;;;5073347;28;19962;-34
2023/06/16 04:54:53;;;;;;;;;;;18.80;51.20;;;;;;5073449;28;19916;-34
2023/06/16 04:57:19;;;;;;;;;;;18.70;51.10;;;;;;5073246;28;19935;-35
2023/06/16 04:59:45;;;;;;;;;;;18.70;51.50;;;;;;5073157;28;19912;-35
2023/06/16 05:02:10;;;;;;;;;;;18.60;51.60;;;;;;5073058;28;19964;-36
2023/06/16 05:04:37;;;;;;;;;;;18.60;51.90;;;;;;5073330;28;20248;-40
2023/06/16 05:07:03;;;;;;;;;;;18.50;52.00;;;;;;5072969;28;19927;-34
2023/06/16 05:09:29;;;;;;;;;;;18.40;52.10;;;;;;5073172;28;20276;-37
2023/06/16 05:11:54;;;;;;;;;;;18.30;52.20;;;;;;5072899;28;19916;-37
2023/06/16 05:14:20;;;;;;;;;;;18.30;52.20;;;;;;5072912;28;19909;-35
2023/06/16 05:16:45;;;;;;;;;;;18.30;52.20;;;;;;5072857;28;20015;-34
2023/06/16 05:19:11;;;;;;;;;;;18.30;52.20;;;;;;5073141;28;19915;-40
2023/06/16 05:21:36;;;;;;;;;;;18.30;52.10;;;;;;5072618;28;19908;-33
2023/06/16 05:24:02;;;;;;;;;;;18.40;52.20;;;;;;5072918;28;19909;-35
2023/06/16 05:26:27;;;;;;;;;;;18.40;52.10;;;;;;5072697;28;20326;-35
2023/06/16 05:28:53;;;;;;;;;;;18.50;52.20;;;;;;5072834;28;19959;-35
2023/06/16 05:31:19;;;;;;;;;;;18.50;52.20;;;;;;5072669;28;19963;-34
2023/06/16 05:33:44;;;;;;;;;;;18.50;52.20;;;;;;5072674;28;19909;-36
2023/06/16 05:36:10;;;;;;;;;;;18.60;52.20;;;;;;5072759;28;19974;-35
2023/06/16 05:38:35;;;;;;;;;;;18.60;52.20;;;;;;5072563;28;19908;-35
2023/06/16 05:41:01;;;;;;;;;;;18.70;52.30;;;;;;5072479;28;19908;-38
2023/06/16 05:43:26;;;;;;;;;;;18.70;52.20;;;;;;5072435;28;19915;-34
2023/06/16 05:45:52;;;;;;;;;;;18.80;52.30;;;;;;5072454;28;20035;-36
2023/06/16 05:48:17;;;;;;;;;;;18.80;52.40;;;;;;5071154;28;19977;-45
2023/06/16 05:50:43;;;;;;;;;;;18.80;52.40;;;;;;5072336;28;20422;-32
2023/06/16 05:53:08;;;;;;;;;;;18.80;52.50;;;;;;5071868;28;19909;-35
2023/06/16 05:55:34;;;;;;;;;;;18.90;52.50;;;;;;5072439;28;19915;-34
2023/06/16 05:58:00;;;;;;;;;;;18.90;52.40;;;;;;5072287;28;19962;-34
2023/06/16 06:00:26;;;;;;;;;;;18.90;52.30;;;;;;5072042;28;19922;-33
2023/06/16 06:02:51;;;;;;;;;;;19.00;52.40;;;;;;5072049;28;19908;-35
2023/06/16 06:05:17;;;;;;;;;;;19.00;52.30;;;;;;5072099;28;19987;-34
2023/06/16 06:07:42;;;;;;;;;;;19.00;52.30;;;;;;5071991;28;19920;-35
2023/06/16 06:10:08;;;;;;;;;;;19.10;52.30;;;;;;5072197;28;20372;-35
2023/06/16 06:12:34;;;;;;;;;;;19.10;52.10;;;;;;5072234;28;19920;-35
2023/06/16 06:14:59;;;;;;;;;;;19.20;51.90;;;;;;5072103;28;20344;-34
2023/06/16 06:17:25;;;;;;;;;;;19.30;51.80;;;;;;5072102;28;19913;-34
2023/06/16 06:19:50;;;;;;;;;;;19.40;51.60;;;;;;5071958;28;19963;-41
2023/06/16 06:22:16;;;;;;;;;;;19.50;51.60;;;;;;5071944;28;20010;-34
2023/06/16 06:24:41;;;;;;;;;;;19.60;51.50;;;;;;5071920;28;19912;-35
2023/06/16 06:27:10;;;;;;;;;;;19.60;51.30;;;;;;5071877;28;19923;-35
2023/06/16 06:29:36;;;;;;;;;;;19.70;51.40;;;;;;5071926;28;19913;-33
2023/06/16 06:32:01;;;;;;;;;;;19.80;51.20;;;;;;5072117;28;19919;-35
2023/06/16 06:34:27;;;;;;;;;;;19.90;51.10;;;;;;5071913;28;19913;-34
2023/06/16 06:36:52;;;;;;;;;;;19.90;50.90;;;;;;5071800;28;19917;-34
2023/06/16 06:39:18;;;;;;;;;;;20.00;50.80;;;;;;5071845;28;19978;-34
2023/06/16 06:41:43;;;;;;;;;;;20.10;50.60;;;;;;5071787;28;19962;-35
2023/06/16 06:44:09;;;;;;;;;;;20.20;50.60;;;;;;5070464;28;19966;-34
2023/06/16 06:46:34;;;;;;;;;;;20.30;50.40;;;;;;5071726;28;20461;-35
2023/06/16 06:49:00;;;;;;;;;;;20.40;50.30;;;;;;5071748;28;19973;-35
2023/06/16 06:51:25;;;;;;;;;;;20.50;50.10;;;;;;5071656;28;19944;-35
2023/06/16 06:53:51;;;;;;;;;;;20.60;50.10;;;;;;5071508;28;19962;-34
2023/06/16 06:56:17;;;;;;;;;;;20.70;50.00;;;;;;5071498;28;19999;-33
2023/06/16 06:58:42;;;;;;;;;;;20.70;50.10;;;;;;5071586;28;19916;-33
2023/06/16 07:01:08;;;;;;;;;;;20.80;50.00;;;;;;5071529;28;20019;-34
2023/06/16 07:03:33;;;;;;;;;;;20.80;49.80;;;;;;5071413;28;20421;-40
2023/06/16 07:05:59;;;;;;;;;;;20.90;49.70;;;;;;5074638;28;19920;-35
2023/06/16 07:08:25;;;;;;;;;;;21.00;49.60;;;;;;5075370;28;20001;-35
2023/06/16 07:10:50;;;;;;;;;;;21.10;49.50;;;;;;5075086;28;20422;-34
2023/06/16 07:13:16;;;;;;;;;;;21.10;49.20;;;;;;5075088;28;19981;-35
2023/06/16 07:15:41;;;;;;;;;;;21.10;49.20;;;;;;5075320;28;19919;-34
2023/06/16 07:18:07;;;;;;;;;;;21.10;49.10;;;;;;5075391;28;19935;-34
2023/06/16 07:20:32;;;;;;;;;;;21.20;49.10;;;;;;5075094;28;19965;-35
2023/06/16 07:22:58;;;;;;;;;;;21.20;49.00;;;;;;5075165;28;20375;-35
2023/06/16 07:25:23;;;;;;;;;;;21.20;49.00;;;;;;5074971;28;19913;-34
2023/06/16 07:27:49;;;;;;;;;;;21.20;49.10;;;;;;5073249;28;19932;-34
2023/06/16 07:30:14;;;;;;;;;;;21.20;49.00;;;;;;5074652;28;19919;-34
2023/06/16 07:32:40;;;;;;;;;;;21.20;49.00;;;;;;5074690;28;19912;-33
2023/06/16 07:35:06;;;;;;;;;;;21.20;49.00;;;;;;5073359;28;20014;-33
2023/06/16 07:37:32;;;;;;;;;;;21.30;49.00;;;;;;5073312;28;19927;-35
2023/06/16 07:39:58;;;;;;;;;;;21.30;48.90;;;;;;5073255;28;19917;-34
2023/06/16 07:42:23;;;;;;;;;;;21.40;49.00;;;;;;5073269;28;20288;-40
2023/06/16 07:44:49;;;;;;;;;;;21.50;48.90;;;;;;5074034;28;19935;-33
2023/06/16 07:47:15;;;;;;;;;;;21.50;48.90;;;;;;5074414;28;19978;-36
2023/06/16 07:49:40;;;;;;;;;;;21.60;48.80;;;;;;5072831;28;19919;-33
2023/06/16 07:52:06;;;;;;;;;;;21.70;48.90;;;;;;5074333;28;20236;-35
2023/06/16 07:54:32;;;;;;;;;;;21.70;48.70;;;;;;5074571;28;19954;-35
2023/06/16 07:56:57;;;;;;;;;;;21.80;48.60;;;;;;5074158;28;20337;-35
2023/06/16 07:59:23;;;;;;;;;;;21.80;48.50;;;;;;5074090;28;19916;-36
2023/06/16 08:01:48;;;;;;;;;;;21.90;48.40;;;;;;5074220;28;19912;-34
2023/06/16 08:04:14;;;;;;;;;;;21.90;48.20;;;;;;5073967;28;19913;-35
2023/06/16 08:06:40;;;;;;;;;;;22.00;48.10;;;;;;5073850;28;20356;-35
2023/06/16 08:09:07;;;;;;;;;;;22.00;47.80;;;;;;5072706;28;19921;-36
2023/06/16 08:11:35;;;;;;;;;;;22.10;47.70;;;;;;5074005;28;20351;-36
2023/06/16 08:14:01;;;;;;;;;;;22.20;47.60;;;;;;5074143;28;19912;-36
2023/06/16 08:16:27;;;;;;;;;;;22.20;47.40;;;;;;5072177;28;19912;-35
2023/06/16 08:18:55;;;;;;;;;;;22.30;47.30;;;;;;5073801;28;20283;-35
2023/06/16 08:21:20;;;;;;;;;;;22.40;47.00;;;;;;5073711;28;19913;-35
2023/06/16 08:23:47;;;;;;;;;;;22.40;46.90;;;;;;5073654;28;19961;-35
2023/06/16 08:26:12;;;;;;;;;;;22.50;46.60;;;;;;5073894;28;20334;-35
2023/06/16 08:28:41;;;;;;;;;;;22.60;46.60;;;;;;5073752;28;20007;-33
2023/06/16 08:31:06;;;;;;;;;;;22.60;46.30;;;;;;5073705;28;19966;-36
2023/06/16 08:33:32;;;;;;;;;;;22.70;46.30;;;;;;5073726;28;19913;-36
2023/06/16 08:35:57;;;;;;;;;;;22.80;46.10;;;;;;5073470;28;19920;-35
2023/06/16 08:38:23;;;;;;;;;;;22.80;46.00;;;;;;5073489;28;19966;-35
2023/06/16 08:40:49;;;;;;;;;;;22.80;45.90;;;;;;5073479;28;20390;-34
2023/06/16 08:43:15;;;;;;;;;;;22.90;45.70;;;;;;5073461;28;19919;-35
2023/06/16 08:45:40;;;;;;;;;;;23.00;45.60;;;;;;5073386;28;20028;-34
2023/06/16 08:48:06;;;;;;;;;;;23.00;45.30;;;;;;5071818;28;19920;-34
2023/06/16 08:50:32;;;;;;;;;;;23.00;45.40;;;;;;5073269;28;19911;-35
2023/06/16 08:52:58;;;;;;;;;;;23.10;45.20;;;;;;5073220;28;19909;-35
2023/06/16 08:55:25;;;;;;;;;;;23.10;45.10;;;;;;5073441;28;19999;-36
2023/06/16 08:57:52;;;;;;;;;;;23.20;44.70;;;;;;5073001;28;19916;-35
2023/06/16 09:00:18;;;;;;;;;;;23.20;44.70;;;;;;5073069;28;19915;-36
2023/06/16 09:02:48;;;;;;;;;;;23.30;45.30;;;;;;5072821;28;20255;-35
2023/06/16 09:05:15;;;;;;;;;;;23.30;44.60;;;;;;5073085;28;19963;-37
2023/06/16 09:07:41;;;;;;;;;;;23.40;44.60;;;;;;5072587;28;19920;-35
2023/06/16 09:10:07;;;;;;;;;;;23.40;44.60;;;;;;5072836;28;20382;-35
2023/06/16 09:12:33;;;;;;;;;;;23.50;44.50;;;;;;5072799;28;19935;-36
2023/06/16 09:14:58;;;;;;;;;;;23.60;44.50;;;;;;5072709;28;19909;-33
2023/06/16 09:17:24;;;;;;;;;;;23.70;44.30;;;;;;5072776;28;19909;-36
2023/06/16 09:19:52;;;;;;;;;;;23.80;44.20;;;;;;5072483;28;19908;-34
2023/06/16 09:22:18;;;;;;;;;;;23.80;44.10;;;;;;5072416;28;20432;-35
2023/06/16 09:24:56;;;;;;;;;;;23.90;43.70;;;;;;5072294;28;19908;-35
2023/06/16 09:27:23;;;;;;;;;;;23.80;43.70;;;;;;5071503;28;20003;-35
2023/06/16 09:29:56;;;;;;;;;;;23.90;43.70;;;;;;5072411;28;20113;-34
2023/06/16 09:32:21;;;;;;;;;;;24.00;43.50;;;;;;5072524;28;20432;-34
2023/06/16 09:34:47;;;;;;;;;;;24.10;42.80;;;;;;5072418;28;19965;-35
2023/06/16 09:37:17;;;;;;;;;;;24.10;42.70;;;;;;5072195;28;19999;-36
2023/06/16 09:39:43;;;;;;;;;;;24.10;42.70;;;;;;5072296;28;19912;-35
2023/06/16 09:42:11;;;;;;;;;;;24.10;42.60;;;;;;5072407;28;19909;-34
2023/06/16 09:44:36;;;;;;;;;;;24.20;42.60;;;;;;5072486;28;19908;-35
2023/06/16 09:47:02;;;;;;;;;;;24.30;42.30;;;;;;5072216;28;19920;-34
2023/06/16 09:49:27;;;;;;;;;;;24.30;42.20;;;;;;5072516;28;20352;-35
2023/06/16 09:51:54;;;;;;;;;;;24.40;41.80;;;;;;5072097;28;20015;-35
2023/06/16 09:54:21;;;;;;;;;;;24.40;41.90;;;;;;5072163;28;19915;-33
2023/06/16 09:56:46;;;;;;;;;;;24.50;42.00;;;;;;5072268;28;19908;-34
2023/06/16 09:59:12;;;;;;;;;;;24.60;42.00;;;;;;5072158;28;19909;-32
2023/06/16 10:01:40;;;;;;;;;;;24.70;42.00;;;;;;5072230;28;19941;-34
2023/06/16 10:04:07;;;;;;;;;;;24.70;41.90;;;;;;5072490;28;19912;-36
2023/06/16 10:06:33;;;;;;;;;;;24.80;41.80;;;;;;5071898;28;19920;-35
2023/06/16 10:09:00;;;;;;;;;;;24.90;41.60;;;;;;5072072;28;19995;-34
2023/06/16 10:11:27;;;;;;;;;;;24.90;41.50;;;;;;5072371;28;19909;-35
2023/06/16 10:14:00;;;;;;;;;;;25.00;41.50;;;;;;5071933;28;19928;-35
2023/06/16 10:16:28;;;;;;;;;;;25.10;41.20;;;;;;5071920;28;19948;-35
2023/06/16 10:18:54;;;;;;;;;;;25.20;40.90;;;;;;5072139;28;20027;-35
2023/06/16 10:21:19;;;;;;;;;;;25.20;40.10;;;;;;5071968;28;19972;-34
2023/06/16 10:23:45;;;;;;;;;;;25.20;40.00;;;;;;5071819;28;19909;-38
2023/06/16 10:26:11;;;;;;;;;;;25.30;40.30;;;;;;5071804;28;20205;-35
2023/06/16 10:28:37;;;;;;;;;;;25.40;40.20;;;;;;5070649;28;19960;-33
2023/06/16 10:31:04;;;;;;;;;;;25.40;40.10;;;;;;5070625;28;19908;-34
2023/06/16 10:33:49;;;;;;;;;;;25.50;40.20;;;;;;5072030;28;19909;-40
2023/06/16 10:36:15;;;;;;;;;;;25.60;40.10;;;;;;5071934;28;19908;-39
2023/06/16 10:38:40;;;;;;;;;;;25.70;40.20;;;;;;5073481;28;19909;-36
2023/06/16 10:41:11;;;;;;;;;;;25.70;39.90;;;;;;5075774;28;19962;-36
2023/06/16 10:43:37;;;;;;;;;;;25.80;39.10;;;;;;5075655;28;19958;-36
2023/06/16 10:46:15;;;;;;;;;;;25.80;39.20;;;;;;5075575;28;20287;-36
2023/06/16 10:48:57;;;;;;;;;;;26.00;39.30;;;;;;5075654;28;20321;-35
2023/06/16 10:51:41;;;;;;;;;;;26.00;39.30;;;;;;5075618;28;19908;-33
2023/06/16 10:54:08;;;;;;;;;;;26.10;38.90;;;;;;5075579;28;19915;-37
2023/06/16 10:56:52;;;;;;;;;;;26.20;39.00;;;;;;5075547;28;19913;-34
2023/06/16 10:59:17;;;;;;;;;;;26.40;38.90;;;;;;5075462;28;19908;-36
2023/06/16 11:01:46;;;;;;;;;;;26.50;39.00;;;;;;5075428;28;19962;-35
2023/06/16 11:04:14;;;;;;;;;;;26.60;39.10;;;;;;5075567;28;19955;-34
2023/06/16 11:06:58;;;;;;;;;;;26.70;39.10;;;;;;5075004;28;19920;-36
2023/06/16 11:09:28;;;;;;;;;;;26.80;38.80;;;;;;5075238;28;19909;-35
2023/06/16 11:11:57;;;;;;;;;;;26.80;38.80;;;;;;5075024;28;19912;-37
2023/06/16 11:14:23;;;;;;;;;;;26.80;38.80;;;;;;5075321;28;20250;-35
2023/06/16 11:16:48;;;;;;;;;;;26.90;38.80;;;;;;5075110;28;19909;-35
2023/06/16 11:19:17;;;;;;;;;;;26.90;38.70;;;;;;5073880;28;19915;-34
2023/06/16 11:21:42;;;;;;;;;;;26.90;38.90;;;;;;5073535;28;20012;-34
2023/06/16 11:24:09;;;;;;;;;;;26.80;39.00;;;;;;5074936;28;19975;-35
2023/06/16 11:26:35;;;;;;;;;;;26.70;39.10;;;;;;5074528;28;20007;-35
2023/06/16 11:29:00;;;;;;;;;;;26.70;39.00;;;;;;5074662;28;19947;-38
2023/06/16 11:31:26;;;;;;;;;;;26.60;39.10;;;;;;5074566;28;20267;-35
2023/06/16 11:33:54;;;;;;;;;;;26.70;39.10;;;;;;5074374;28;19916;-33
2023/06/16 11:36:22;;;;;;;;;;;26.60;39.10;;;;;;5074717;28;20423;-35
2023/06/16 11:38:51;;;;;;;;;;;26.60;39.10;;;;;;5074814;28;20367;-37
2023/06/16 11:41:21;;;;;;;;;;;26.70;38.80;;;;;;5074695;28;20394;-35
2023/06/16 11:43:47;;;;;;;;;;;26.80;38.60;;;;;;5074426;28;20446;-35
2023/06/16 11:46:13;;;;;;;;;;;26.80;38.70;;;;;;5073324;28;20005;-34
2023/06/16 11:48:39;;;;;;;;;;;26.80;38.40;;;;;;5074690;28;19913;-36
2023/06/16 11:51:07;;;;;;;;;;;26.70;38.70;;;;;;5073917;28;19962;-35
2023/06/16 11:53:32;;;;;;;;;;;26.60;38.80;;;;;;5074490;28;20335;-35
2023/06/16 11:55:59;;;;;;;;;;;26.60;38.90;;;;;;5074572;28;19910;-34
2023/06/16 11:58:27;;;;;;;;;;;26.50;39.00;;;;;;5074377;28;19913;-34
2023/06/16 12:00:56;;;;;;;;;;;26.50;39.00;;;;;;5073056;28;19943;-35
2023/06/16 12:03:24;;;;;;;;;;;26.40;39.10;;;;;;5072688;28;19909;-34
2023/06/16 12:05:53;;;;;;;;;;;26.40;39.10;;;;;;5073988;28;20014;-34
2023/06/16 12:08:37;;;;;;;;;;;26.40;39.20;;;;;;5074126;28;19965;-34
2023/06/16 12:11:02;;;;;;;;;;;26.40;39.20;;;;;;5074154;28;19915;-35
2023/06/16 12:13:33;;;;;;;;;;;26.50;39.20;;;;;;5074243;28;19908;-34
2023/06/16 12:15:58;;;;;;;;;;;26.60;39.20;;;;;;5073984;28;20307;-35
2023/06/16 12:18:23;;;;;;;;;;;26.80;39.10;;;;;;5074227;28;19908;-35
2023/06/16 12:20:49;;;;;;;;;;;26.90;39.10;;;;;;5073871;28;20132;-35
2023/06/16 12:23:17;;;;;;;;;;;26.90;39.10;;;;;;5073827;28;19915;-34
2023/06/16 12:25:42;;;;;;;;;;;26.90;39.10;;;;;;5073814;28;19909;-34
2023/06/16 12:28:08;;;;;;;;;;;26.90;39.10;;;;;;5073759;28;19995;-36
2023/06/16 12:30:34;;;;;;;;;;;26.90;38.90;;;;;;5073693;28;20390;-34
2023/06/16 12:33:09;;;;;;;;;;;26.90;38.80;;;;;;5072317;28;19913;-34
2023/06/16 12:35:35;;;;;;;;;;;26.90;38.80;;;;;;5073697;28;19908;-35
2023/06/16 12:38:01;;;;;;;;;;;26.80;38.90;;;;;;5072107;28;20275;-34
2023/06/16 12:40:31;;;;;;;;;;;26.80;39.00;;;;;;5073684;28;20007;-36
2023/06/16 12:43:16;;;;;;;;;;;26.90;39.00;;;;;;5073331;28;19908;-34
2023/06/16 12:45:42;;;;;;;;;;;26.90;38.70;;;;;;5073351;28;19908;-35
2023/06/16 12:48:07;;;;;;;;;;;26.90;38.70;;;;;;5073247;28;20049;-36
2023/06/16 12:50:33;;;;;;;;;;;26.80;38.60;;;;;;5073334;28;19912;-34
2023/06/16 12:52:58;;;;;;;;;;;26.70;38.40;;;;;;5073378;28;20136;-36
2023/06/16 12:55:24;;;;;;;;;;;26.70;38.70;;;;;;5073144;28;19955;-35
2023/06/16 12:57:50;;;;;;;;;;;26.70;38.70;;;;;;5073390;28;19908;-35
2023/06/16 13:00:16;;;;;;;;;;;26.70;38.80;;;;;;5071764;28;20200;-36
2023/06/16 13:02:42;;;;;;;;;;;26.70;38.60;;;;;;5072103;28;19963;-36
2023/06/16 13:05:08;;;;;;;;;;;27.00;38.40;;;;;;5072063;28;20011;-35
2023/06/16 13:07:33;;;;;;;;;;;27.30;38.10;;;;;;5072789;28;19986;-33
2023/06/16 13:09:59;;;;;;;;;;;27.60;37.80;;;;;;5073058;28;20264;-36
2023/06/16 13:12:24;;;;;;;;;;;27.80;37.60;;;;;;5072871;28;19915;-34
2023/06/16 13:14:50;;;;;;;;;;;28.10;37.40;;;;;;5072976;28;20367;-34
2023/06/16 13:17:16;;;;;;;;;;;28.30;37.30;;;;;;5072841;28;19909;-34
2023/06/16 13:19:41;;;;;;;;;;;28.60;36.80;;;;;;5072821;28;20405;-36
2023/06/16 13:22:07;;;;;;;;;;;28.80;36.60;;;;;;5072720;28;20368;-35
2023/06/16 13:24:40;;;;;;;;;;;29.00;36.80;;;;;;5069392;28;20295;-40
2023/06/16 13:27:05;;;;;;;;;;;29.20;36.80;;;;;;5069710;28;19913;-35
2023/06/16 13:29:31;;;;;;;;;;;29.40;36.70;;;;;;5069376;28;19978;-34
2023/06/16 13:31:57;;;;;;;;;;;29.50;35.90;;;;;;5069262;28;19913;-35
2023/06/16 13:34:22;;;;;;;;;;;29.60;35.50;;;;;;5069439;28;20426;-34
2023/06/16 13:36:48;;;;;;;;;;;29.70;35.20;;;;;;5069270;28;19916;-36
2023/06/16 13:39:14;;;;;;;;;;;29.70;34.80;;;;;;5069098;28;20331;-33
2023/06/16 13:41:40;;;;;;;;;;;29.80;34.90;;;;;;5069086;28;20012;-34
2023/06/16 13:44:05;;;;;;;;;;;29.80;35.00;;;;;;5068894;28;19944;-34
2023/06/16 13:46:31;;;;;;;;;;;29.90;34.40;;;;;;5069436;28;19919;-34
2023/06/16 13:48:56;;;;;;;;;;;30.00;34.50;;;;;;5069026;28;19912;-36
2023/06/16 13:51:22;;;;;;;;;;;30.00;34.50;;;;;;5068890;28;19912;-34
2023/06/16 13:53:48;;;;;;;;;;;29.80;34.60;;;;;;5068856;28;19917;-34
2023/06/16 13:56:13;;;;;;;;;;;29.60;35.50;;;;;;5068790;28;19912;-35
2023/06/16 13:58:39;;;;;;;;;;;29.40;34.70;;;;;;5068825;28;19917;-34
2023/06/16 14:01:05;;;;;;;;;;;29.40;34.70;;;;;;5068781;28;20323;-33
2023/06/16 14:03:30;;;;;;;;;;;29.40;34.80;;;;;;5068505;28;20338;-36
2023/06/16 14:05:56;;;;;;;;;;;29.60;34.60;;;;;;5068550;28;20265;-35
2023/06/16 14:08:22;;;;;;;;;;;29.60;34.70;;;;;;5068700;28;20293;-38
2023/06/16 14:10:48;;;;;;;;;;;29.80;34.90;;;;;;5068437;28;19913;-34
2023/06/16 14:13:13;;;;;;;;;;;29.90;34.50;;;;;;5068479;28;19952;-33